createdAt,value
2018-06-29T00:00:54.385Z,3.83
2018-06-29T00:03:23.844Z,4.43
2018-06-29T00:05:53.341Z,3.80
2018-06-29T00:08:22.780Z,3.33
2018-06-29T00:10:52.221Z,4.17
2018-06-29T00:13:22.625Z,3.87
2018-06-29T00:15:52.753Z,4.20
2018-06-29T00:18:22.213Z,3.83
2018-06-29T00:20:51.829Z,3.90
2018-06-29T00:23:21.549Z,3.33
2018-06-29T00:25:51.069Z,3.07
2018-06-29T00:28:20.505Z,4.37
2018-06-29T00:30:50.007Z,4.07
2018-06-29T00:33:19.659Z,3.00
2018-06-29T00:35:49.144Z,3.10
2018-06-29T00:38:18.561Z,3.60
2018-06-29T00:40:48.085Z,4.03
2018-06-29T00:43:17.541Z,3.37
2018-06-29T00:45:47.070Z,3.17
2018-06-29T00:48:16.221Z,3.53
2018-06-29T00:50:45.614Z,3.27
2018-06-29T00:53:15.028Z,3.70
2018-06-29T00:55:44.475Z,3.43
2018-06-29T00:58:13.951Z,3.33
2018-06-29T01:00:43.393Z,4.37
2018-06-29T01:03:13.270Z,3.50
2018-06-29T01:05:42.724Z,3.50
2018-06-29T01:08:12.266Z,3.07
2018-06-29T01:10:41.697Z,3.77
2018-06-29T01:13:11.159Z,2.93
2018-06-29T01:19:14.910Z,2.80
2018-06-29T01:21:44.431Z,2.70
2018-06-29T01:24:14.721Z,2.40
2018-06-29T01:26:44.356Z,2.53
2018-06-29T01:29:13.860Z,3.00
2018-06-29T01:31:43.315Z,3.00
2018-06-29T01:34:12.756Z,2.80
2018-06-29T01:36:42.521Z,2.97
2018-06-29T01:39:12.147Z,3.70
2018-06-29T01:41:41.576Z,2.50
2018-06-29T01:44:11.606Z,3.40
2018-06-29T01:46:41.052Z,3.27
2018-06-29T01:49:10.495Z,3.00
2018-06-29T01:51:39.961Z,3.03
2018-06-29T01:54:09.425Z,3.70
2018-06-29T01:56:38.933Z,3.00
2018-06-29T01:59:08.374Z,3.00
2018-06-29T02:01:37.925Z,3.63
2018-06-29T02:04:07.405Z,3.90
2018-06-29T02:06:36.969Z,2.97
2018-06-29T02:09:08.538Z,3.10
2018-06-29T02:11:38.213Z,3.47
2018-06-29T02:14:07.804Z,3.13
2018-06-29T02:16:37.301Z,3.60
2018-06-29T02:19:06.737Z,3.10
2018-06-29T02:21:36.174Z,2.97
2018-06-29T02:24:05.952Z,2.83
2018-06-29T02:26:35.682Z,3.33
2018-06-29T02:29:05.233Z,3.33
2018-06-29T02:31:34.741Z,2.70
2018-06-29T02:34:04.209Z,3.30
2018-06-29T02:37:36.370Z,3.47
2018-06-29T02:40:05.990Z,4.20
2018-06-29T02:42:35.449Z,3.03
2018-06-29T02:45:05.325Z,3.57
2018-06-29T02:47:34.872Z,2.87
2018-06-29T02:50:04.475Z,3.90
2018-06-29T02:52:33.931Z,3.00
2018-06-29T02:55:03.636Z,3.00
2018-06-29T02:57:33.135Z,3.37
2018-06-29T03:00:02.702Z,3.97
2018-06-29T03:02:32.181Z,3.37
2018-06-29T03:05:01.645Z,3.80
2018-06-29T03:07:31.120Z,4.00
2018-06-29T03:10:00.959Z,3.67
2018-06-29T03:12:30.205Z,3.10
2018-06-29T03:14:59.574Z,2.70
2018-06-29T03:17:29.025Z,3.47
2018-06-29T03:19:58.789Z,3.30
2018-06-29T03:22:28.257Z,3.43
2018-06-29T03:24:57.708Z,3.30
2018-06-29T03:27:27.269Z,3.20
2018-06-29T03:29:57.030Z,2.93
2018-06-29T03:32:26.680Z,3.80
2018-06-29T03:34:56.173Z,3.23
2018-06-29T03:37:25.645Z,3.43
2018-06-29T03:39:55.102Z,3.83
2018-06-29T03:42:24.533Z,4.10
2018-06-29T03:44:54.076Z,4.00
2018-06-29T03:47:23.532Z,3.77
2018-06-29T03:49:52.617Z,4.33
2018-06-29T03:52:21.993Z,3.73
2018-06-29T03:54:51.430Z,4.17
2018-06-29T03:57:20.977Z,3.43
2018-06-29T03:59:50.497Z,3.80
2018-06-29T04:02:19.964Z,3.77
2018-06-29T04:04:49.711Z,4.50
2018-06-29T04:07:19.321Z,3.43
2018-06-29T04:09:48.759Z,3.80
2018-06-29T04:12:18.438Z,3.90
2018-06-29T04:14:47.858Z,4.43
2018-06-29T04:17:17.287Z,4.33
2018-06-29T04:19:46.719Z,4.17
2018-06-29T04:22:16.140Z,4.10
2018-06-29T04:24:45.599Z,4.30
2018-06-29T04:27:15.020Z,4.27
2018-06-29T04:29:44.477Z,4.03
2018-06-29T04:32:14.438Z,4.50
2018-06-29T04:34:43.994Z,4.27
2018-06-29T04:37:13.497Z,4.10
2018-06-29T04:39:42.986Z,4.80
2018-06-29T04:42:12.421Z,4.80
2018-06-29T04:44:42.158Z,4.63
2018-06-29T04:47:11.633Z,4.07
2018-06-29T04:49:40.871Z,5.30
2018-06-29T04:52:10.389Z,4.67
2018-06-29T04:54:40.163Z,4.63
2018-06-29T04:57:09.661Z,5.30
2018-06-29T04:59:39.130Z,4.60
2018-06-29T05:02:08.693Z,4.40
2018-06-29T05:04:38.181Z,4.63
2018-06-29T05:07:07.604Z,5.60
2018-06-29T05:09:37.123Z,4.80
2018-06-29T05:12:06.614Z,5.30
2018-06-29T05:14:36.732Z,4.07
2018-06-29T05:17:06.701Z,7.40
2018-06-29T05:19:36.305Z,8.27
2018-06-29T05:22:05.968Z,11.17
2018-06-29T05:24:35.630Z,14.30
2018-06-29T05:27:04.788Z,12.77
2018-06-29T05:29:34.171Z,12.20
2018-06-29T05:32:03.692Z,11.10
2018-06-29T05:34:33.182Z,10.53
2018-06-29T05:37:02.689Z,8.90
2018-06-29T05:39:32.176Z,9.13
2018-06-29T05:42:01.734Z,8.43
2018-06-29T05:44:31.257Z,9.10
2018-06-29T06:22:01.018Z,6.33
2018-06-29T06:24:30.590Z,5.43
2018-06-29T06:27:00.265Z,6.33
2018-06-29T06:29:29.832Z,5.23
2018-06-29T06:31:59.357Z,5.57
2018-06-29T06:34:29.092Z,5.90
2018-06-29T06:36:58.750Z,6.00
2018-06-29T06:39:28.218Z,5.87
2018-06-29T06:41:57.864Z,5.87
2018-06-29T06:44:27.497Z,6.10
2018-06-29T06:46:57.209Z,6.30
2018-06-29T06:49:26.705Z,5.30
2018-06-29T06:51:55.996Z,5.60
2018-06-29T06:54:25.356Z,5.70
2018-06-29T06:56:54.877Z,5.90
2018-06-29T06:59:24.376Z,5.60
2018-06-29T07:01:54.053Z,5.83
2018-06-29T07:04:23.637Z,5.27
2018-06-29T07:06:53.164Z,5.50
2018-06-29T07:09:22.633Z,5.83
2018-06-29T07:11:51.761Z,5.63
2018-06-29T07:14:21.158Z,5.53
2018-06-29T07:16:50.694Z,5.10
2018-06-29T07:19:21.096Z,5.50
2018-06-29T07:21:50.942Z,5.43
2018-06-29T07:24:20.603Z,5.30
2018-06-29T07:26:50.291Z,5.40
2018-06-29T07:29:19.919Z,5.30
2018-06-29T07:31:49.557Z,5.80
2018-06-29T07:37:02.687Z,5.47
2018-06-29T07:39:32.213Z,5.63
2018-06-29T07:42:01.682Z,5.30
2018-06-29T07:44:31.389Z,5.27
2018-06-29T07:47:00.955Z,5.13
2018-06-29T07:49:30.479Z,5.70
2018-06-29T07:52:00.168Z,6.63
2018-06-29T07:54:29.781Z,5.67
2018-06-29T07:56:59.744Z,6.80
2018-06-29T07:59:29.588Z,5.60
2018-06-29T08:01:59.102Z,6.33
2018-06-29T08:04:28.781Z,5.37
2018-06-29T08:06:59.126Z,6.37
2018-06-29T08:09:28.814Z,5.00
2018-06-29T08:11:58.417Z,5.00
2018-06-29T08:14:28.146Z,5.20
2018-06-29T08:16:57.976Z,4.60
2018-06-29T08:19:27.870Z,5.57
2018-06-29T08:21:57.292Z,6.30
2018-06-29T08:24:29.817Z,4.83
2018-06-29T08:26:59.279Z,5.33
2018-06-29T08:29:28.881Z,6.10
2018-06-29T08:31:59.482Z,6.47
2018-06-29T08:34:29.608Z,4.87
2018-06-29T08:36:59.473Z,5.53
2018-06-29T08:39:29.174Z,6.13
2018-06-29T08:41:58.826Z,5.63
2018-06-29T08:44:28.438Z,5.93
2018-06-29T08:46:58.020Z,5.03
2018-06-29T08:49:27.522Z,5.63
2018-06-29T08:51:57.002Z,5.03
2018-06-29T08:54:26.187Z,5.40
2018-06-29T08:56:57.357Z,5.33
2018-06-29T08:59:27.051Z,5.00
2018-06-29T09:01:56.494Z,5.33
2018-06-29T09:04:27.613Z,4.93
2018-06-29T09:06:57.097Z,4.87
2018-06-29T09:09:26.602Z,4.80
2018-06-29T09:11:57.663Z,5.27
2018-06-29T09:14:28.105Z,5.17
2018-06-29T09:16:57.958Z,5.40
2018-06-29T09:19:27.714Z,5.37
2018-06-29T09:21:57.223Z,4.50
2018-06-29T09:24:26.776Z,4.43
2018-06-29T09:26:56.548Z,4.70
2018-06-29T09:29:26.173Z,4.27
2018-06-29T09:31:55.683Z,4.70
2018-06-29T09:34:25.196Z,4.40
2018-06-29T09:36:55.248Z,3.70
2018-06-29T09:39:26.447Z,5.03
2018-06-29T09:41:56.330Z,4.17
2018-06-29T09:44:26.806Z,4.47
2018-06-29T09:46:56.346Z,3.90
2018-06-29T09:49:25.922Z,4.13
2018-06-29T09:51:55.644Z,3.80
2018-06-29T09:54:25.212Z,3.67
2018-06-29T09:56:55.481Z,4.00
2018-06-29T09:59:25.428Z,4.07
2018-06-29T10:01:55.135Z,3.70
2018-06-29T10:04:24.274Z,3.27
2018-06-29T10:06:53.819Z,3.17
2018-06-29T10:09:23.310Z,3.10
2018-06-29T10:11:52.815Z,3.20
2018-06-29T10:14:22.364Z,3.20
2018-06-29T10:16:58.567Z,3.00
2018-06-29T10:19:36.246Z,3.53
2018-06-29T10:22:06.351Z,3.00
2018-06-29T10:24:36.152Z,2.67
2018-06-29T10:27:05.861Z,2.77
2018-06-29T10:29:35.333Z,1.97
2018-06-29T10:32:04.891Z,2.63
2018-06-29T10:34:35.023Z,2.03
2018-06-29T10:37:04.611Z,2.07
2018-06-29T10:39:34.125Z,1.97
2018-06-29T10:42:03.898Z,2.07
2018-06-29T10:44:33.598Z,1.87
2018-06-29T10:47:02.872Z,1.60
2018-06-29T10:49:32.323Z,1.70
2018-06-29T10:52:01.900Z,2.00
2018-06-29T10:54:31.425Z,1.63
2018-06-29T10:57:00.888Z,1.90
2018-06-29T10:59:31.378Z,1.77
2018-06-29T11:02:00.951Z,1.33
2018-06-29T11:04:30.436Z,1.50
2018-06-29T11:06:59.957Z,1.37
2018-06-29T11:09:29.593Z,1.60
2018-06-29T11:11:59.370Z,1.20
2018-06-29T11:14:28.900Z,1.73
2018-06-29T11:16:58.918Z,1.20
2018-06-29T11:19:28.518Z,1.33
2018-06-29T11:21:58.047Z,1.00
2018-06-29T11:24:28.371Z,1.10
2018-06-29T11:26:58.181Z,1.17
2018-06-29T11:29:28.026Z,1.10
2018-06-29T11:31:57.796Z,0.87
2018-06-29T11:34:27.412Z,1.20
2018-06-29T11:36:57.335Z,1.10
2018-06-29T11:39:27.580Z,0.77
2018-06-29T11:41:57.388Z,1.17
2018-06-29T11:44:27.645Z,1.00
2018-06-29T11:46:58.102Z,0.73
2018-06-29T11:49:27.912Z,1.20
2018-06-29T11:51:57.397Z,1.00
2018-06-29T11:54:27.264Z,1.17
2018-06-29T11:56:56.824Z,0.80
2018-06-29T11:59:27.414Z,0.90
2018-06-29T12:01:57.089Z,1.17
2018-06-29T12:04:26.856Z,0.90
2018-06-29T12:06:57.062Z,0.90
2018-06-29T12:09:27.280Z,0.80
2018-06-29T12:11:56.814Z,0.80
2018-06-29T12:14:26.355Z,0.97
2018-06-29T12:16:55.866Z,0.80
2018-06-29T12:19:25.395Z,0.70
2018-06-29T12:21:55.161Z,0.70
2018-06-29T12:24:25.085Z,0.80
2018-06-29T12:26:55.026Z,0.80
2018-06-29T12:29:24.624Z,0.60
2018-06-29T12:31:54.302Z,0.70
2018-06-29T12:34:23.909Z,1.27
2018-06-29T12:36:53.816Z,0.60
2018-06-29T12:39:23.933Z,0.80
2018-06-29T12:41:53.820Z,0.60
2018-06-29T12:44:23.625Z,0.60
2018-06-29T12:46:53.316Z,0.80
2018-06-29T12:49:23.575Z,0.60
2018-06-29T12:51:53.213Z,0.60
2018-06-29T12:54:22.787Z,0.63
2018-06-29T12:56:52.600Z,0.60
2018-06-29T12:59:22.336Z,0.70
2018-06-29T13:01:51.862Z,0.70
2018-06-29T13:04:21.620Z,1.70
2018-06-29T13:06:51.859Z,0.60
2018-06-29T13:09:21.392Z,0.60
2018-06-29T13:11:51.702Z,0.60
2018-06-29T13:14:21.879Z,0.50
2018-06-29T13:16:51.434Z,0.50
2018-06-29T13:19:21.475Z,0.77
2018-06-29T13:21:51.291Z,0.67
2018-06-29T13:24:21.008Z,0.50
2018-06-29T13:26:50.657Z,0.80
2018-06-29T13:29:20.876Z,0.80
2018-06-29T13:31:50.398Z,0.50
2018-06-29T13:34:20.674Z,0.70
2018-06-29T13:36:50.257Z,0.67
2018-06-29T13:39:19.962Z,1.33
2018-06-29T13:41:49.967Z,0.60
2018-06-29T13:44:19.472Z,0.63
2018-06-29T13:46:49.122Z,0.50
2018-06-29T13:49:19.242Z,0.60
2018-06-29T13:51:49.264Z,0.53
2018-06-29T13:54:19.463Z,0.70
2018-06-29T13:56:49.727Z,1.03
2018-06-29T13:59:19.373Z,0.60
2018-06-29T14:01:49.046Z,1.00
2018-06-29T14:04:18.605Z,0.50
2018-06-29T14:06:48.166Z,0.60
2018-06-29T14:09:17.781Z,0.80
2018-06-29T14:11:47.550Z,0.50
2018-06-29T14:14:18.138Z,1.10
2018-06-29T14:16:47.650Z,0.67
2018-06-29T14:19:17.349Z,0.60
2018-06-29T14:21:47.198Z,0.60
2018-06-29T14:24:16.950Z,0.50
2018-06-29T14:26:48.436Z,0.70
2018-06-29T14:29:19.169Z,0.50
2018-06-29T14:31:57.384Z,0.53
2018-06-29T14:34:37.570Z,0.60
2018-06-29T14:37:12.955Z,0.60
2018-06-29T14:39:49.577Z,0.97
2018-06-29T14:42:25.224Z,1.43
2018-06-29T14:45:00.931Z,0.60
2018-06-29T14:47:36.774Z,0.63
2018-06-29T14:50:12.543Z,0.50
2018-06-29T14:52:48.111Z,0.50
2018-06-29T14:55:23.895Z,0.47
2018-06-29T14:57:59.854Z,0.60
2018-06-29T15:00:36.387Z,0.50
2018-06-29T15:03:12.093Z,0.50
2018-06-29T15:05:47.988Z,0.50
2018-06-29T15:08:23.728Z,0.60
2018-06-29T15:11:00.117Z,0.60
2018-06-29T15:13:35.581Z,0.50
2018-06-29T15:16:12.052Z,0.70
2018-06-29T15:18:47.673Z,0.70
2018-06-29T15:21:22.848Z,0.50
2018-06-29T15:23:58.236Z,0.70
2018-06-29T15:26:34.568Z,0.50
2018-06-29T15:29:09.901Z,0.50
2018-06-29T15:31:45.288Z,0.60
2018-06-29T15:34:20.986Z,0.60
2018-06-29T15:36:56.248Z,0.70
2018-06-29T15:39:31.868Z,0.50
2018-06-29T15:42:07.508Z,0.53
2018-06-29T15:44:43.426Z,0.50
2018-06-29T15:47:19.045Z,0.70
2018-06-29T15:49:54.280Z,0.60
2018-06-29T15:52:29.769Z,0.60
2018-06-29T15:55:06.086Z,0.60
2018-06-29T15:57:41.533Z,0.50
2018-06-29T16:00:16.726Z,0.50
2018-06-29T16:02:52.153Z,0.60
2018-06-29T16:05:27.264Z,0.50
2018-06-29T16:08:02.334Z,0.70
2018-06-29T16:10:38.173Z,0.70
2018-06-29T16:13:13.378Z,1.00
2018-06-29T16:15:48.613Z,0.50
2018-06-29T16:18:23.649Z,0.60
2018-06-29T16:20:58.804Z,1.10
2018-06-29T16:23:33.864Z,0.77
2018-06-29T16:26:09.292Z,0.70
2018-06-29T16:28:39.125Z,0.50
2018-06-29T16:31:08.826Z,0.60
2018-06-29T16:33:38.379Z,0.50
2018-06-29T16:36:09.134Z,0.60
2018-06-29T16:38:38.635Z,0.60
2018-06-29T16:41:08.299Z,0.70
2018-06-29T16:43:38.502Z,0.47
2018-06-29T16:46:08.322Z,0.70
2018-06-29T16:48:39.218Z,0.50
2018-06-29T16:51:10.032Z,1.43
2018-06-29T16:53:39.590Z,17.33
2018-06-29T16:56:09.676Z,28.27
2018-06-29T16:58:39.520Z,2.40
2018-06-29T17:51:15.260Z,0.67
2018-06-29T17:53:44.891Z,0.63
2018-06-29T17:56:14.675Z,0.60
2018-06-29T17:58:44.417Z,0.60
2018-06-29T18:01:14.254Z,0.50
2018-06-29T18:03:44.969Z,0.60
2018-06-29T18:06:14.925Z,0.60
2018-06-29T18:08:44.487Z,0.70
2018-06-29T18:11:14.293Z,0.50
2018-06-29T18:13:44.079Z,0.80
2018-06-29T18:16:14.086Z,0.67
2018-06-29T18:18:43.893Z,0.60
2018-06-29T18:21:14.765Z,0.70
2018-06-29T18:23:44.529Z,0.77
2018-06-29T18:26:19.810Z,0.60
2018-06-29T18:28:50.078Z,0.70
2018-06-29T18:31:20.122Z,0.50
2018-06-29T18:33:50.199Z,0.60
2018-06-29T18:36:20.246Z,0.60
2018-06-29T18:38:50.850Z,0.50
2018-06-29T18:41:20.572Z,0.60
2018-06-29T18:43:50.270Z,0.50
2018-06-29T18:46:20.058Z,0.67
2018-06-29T18:48:49.797Z,0.50
2018-06-29T18:51:19.710Z,0.50
2018-06-29T18:53:49.390Z,0.50
2018-06-29T18:56:18.589Z,0.63
2018-06-29T18:58:47.643Z,0.60
2018-06-29T19:01:17.387Z,0.50
2018-06-29T19:03:47.314Z,0.60
2018-06-29T19:06:17.442Z,0.57
2018-06-29T19:08:48.100Z,0.60
2018-06-29T19:11:18.042Z,0.67
2018-06-29T19:13:48.276Z,0.70
2018-06-29T19:16:18.245Z,0.80
2018-06-29T19:18:48.378Z,0.50
2018-06-29T19:21:18.090Z,0.70
2018-06-29T19:23:54.348Z,0.70
2018-06-29T19:26:24.189Z,0.50
2018-06-29T19:28:54.181Z,0.60
2018-06-29T19:31:24.010Z,0.70
2018-06-29T19:34:01.616Z,0.57
2018-06-29T19:36:34.063Z,0.67
2018-06-29T19:39:05.338Z,0.60
2018-06-29T19:41:35.069Z,1.00
2018-06-29T19:44:04.938Z,0.70
2018-06-29T19:46:36.264Z,0.57
2018-06-29T19:49:06.953Z,0.90
2018-06-29T19:51:37.543Z,0.50
2018-06-29T19:54:07.644Z,0.50
2018-06-29T19:56:37.461Z,0.80
2018-06-29T19:59:08.243Z,0.63
2018-06-29T20:01:38.041Z,1.27
2018-06-29T20:04:08.396Z,0.60
2018-06-29T20:06:37.624Z,0.60
2018-06-29T20:09:10.491Z,0.93
2018-06-29T20:11:55.111Z,0.80
2018-06-29T20:14:26.247Z,0.50
2018-06-29T20:16:55.811Z,0.70
2018-06-29T20:19:25.937Z,0.70
2018-06-29T20:21:59.395Z,0.63
2018-06-29T20:24:29.174Z,0.60
2018-06-29T20:26:58.833Z,0.50
2018-06-29T20:29:28.384Z,0.50
2018-06-29T20:31:58.439Z,0.60
2018-06-29T20:34:28.236Z,0.57
2018-06-29T20:36:58.028Z,0.50
2018-06-29T20:39:27.584Z,0.60
2018-06-29T20:41:56.707Z,0.50
2018-06-29T20:44:26.244Z,0.60
2018-06-29T20:46:55.900Z,1.13
2018-06-29T20:49:26.435Z,0.80
2018-06-29T20:51:57.213Z,1.07
2018-06-29T20:54:26.888Z,0.70
2018-06-29T20:56:56.408Z,0.80
2018-06-29T20:59:26.165Z,0.77
2018-06-29T21:01:56.833Z,0.83
2018-06-29T21:04:27.080Z,0.70
2018-06-29T21:06:56.607Z,0.50
2018-06-29T21:09:26.693Z,0.50
2018-06-29T21:11:56.704Z,0.60
2018-06-29T21:14:26.381Z,0.60
2018-06-29T21:16:56.864Z,0.53
2018-06-29T21:19:26.554Z,0.53
2018-06-29T21:21:57.306Z,0.50
2018-06-29T21:24:27.046Z,0.60
2018-06-29T21:26:57.469Z,0.50
2018-06-29T21:29:27.172Z,0.50
2018-06-29T21:31:57.037Z,0.50
2018-06-29T21:34:26.781Z,0.50
2018-06-29T21:36:56.392Z,0.70
2018-06-29T21:39:26.428Z,0.60
2018-06-29T21:41:56.093Z,0.50
2018-06-29T21:44:25.781Z,0.53
2018-06-29T21:46:55.458Z,0.50
2018-06-29T21:49:25.207Z,0.60
2018-06-29T21:51:54.937Z,0.53
2018-06-29T21:54:24.746Z,0.53
2018-06-29T21:56:54.722Z,0.50
2018-06-29T21:59:24.688Z,0.67
2018-06-29T22:01:54.507Z,0.50
2018-06-29T22:04:24.115Z,0.70
2018-06-29T22:06:53.904Z,0.60
2018-06-29T22:09:24.034Z,0.53
2018-06-29T22:11:53.630Z,0.40
2018-06-29T22:14:24.200Z,0.60
2018-06-29T22:16:54.078Z,0.60
2018-06-29T22:19:23.811Z,0.50
2018-06-29T22:21:53.921Z,0.50
2018-06-29T22:24:23.668Z,0.50
2018-06-29T22:26:53.773Z,0.50
2018-06-29T22:29:24.108Z,0.60
2018-06-29T22:31:54.302Z,0.60
2018-06-29T22:34:24.202Z,0.70
2018-06-29T22:36:53.857Z,0.70
2018-06-29T22:39:23.329Z,0.60
2018-06-29T22:41:53.050Z,0.60
2018-06-29T22:44:22.575Z,0.70
2018-06-29T22:46:52.209Z,0.50
2018-06-29T22:49:21.664Z,0.50
2018-06-29T22:51:51.140Z,0.60
2018-06-29T22:54:20.572Z,0.50
2018-06-29T22:56:50.547Z,0.60
2018-06-29T22:59:19.976Z,0.50
2018-06-29T23:01:49.452Z,0.50
2018-06-29T23:04:19.522Z,0.50
2018-06-29T23:06:49.176Z,0.60
2018-06-29T23:09:18.649Z,0.50
2018-06-29T23:11:49.334Z,0.60
2018-06-29T23:14:18.804Z,0.60
2018-06-29T23:16:48.350Z,0.60
2018-06-29T23:19:18.024Z,0.60
2018-06-29T23:21:47.579Z,0.60
2018-06-29T23:24:17.137Z,0.60
2018-06-29T23:26:46.694Z,0.60
2018-06-29T23:29:16.503Z,0.57
2018-06-29T23:31:45.977Z,0.50
2018-06-29T23:34:15.765Z,0.50
2018-06-29T23:36:48.196Z,0.60
2018-06-29T23:39:17.887Z,1.20
2018-06-29T23:41:47.366Z,0.50
2018-06-29T23:44:16.885Z,0.87
2018-06-29T23:46:47.243Z,0.60
2018-06-29T23:49:17.170Z,0.60
2018-06-29T23:51:47.074Z,0.50
2018-06-29T23:54:16.543Z,0.60
2018-06-29T23:56:46.013Z,0.60
2018-06-29T23:59:15.440Z,0.70
